createdAt,value
2019-02-14T00:00:13.768Z,4.91
2019-02-14T00:01:21.653Z,4.93
2019-02-14T00:02:28.277Z,4.94
2019-02-14T00:03:35.664Z,4.95
2019-02-14T00:04:42.684Z,4.97
2019-02-14T00:05:49.146Z,4.94
2019-02-14T00:06:56.035Z,4.96
2019-02-14T00:08:03.224Z,4.96
2019-02-14T00:09:10.515Z,5.00
2019-02-14T00:10:17.723Z,4.99
2019-02-14T00:11:24.752Z,4.97
2019-02-14T00:12:31.553Z,4.98
2019-02-14T00:13:38.394Z,4.96
2019-02-14T00:14:44.844Z,4.93
2019-02-14T00:15:51.631Z,4.95
2019-02-14T00:16:57.563Z,4.96
2019-02-14T00:18:03.224Z,4.95
2019-02-14T00:19:08.869Z,4.95
2019-02-14T00:20:14.511Z,4.93
2019-02-14T00:21:20.186Z,4.91
2019-02-14T00:22:25.854Z,4.91
2019-02-14T00:23:31.538Z,4.87
2019-02-14T00:24:37.181Z,4.87
2019-02-14T00:25:42.843Z,4.87
2019-02-14T00:26:48.490Z,4.88
2019-02-14T00:27:55.405Z,4.91
2019-02-14T00:29:02.292Z,4.90
2019-02-14T00:30:10.725Z,4.92
2019-02-14T00:31:17.488Z,4.91
2019-02-14T00:32:23.924Z,4.93
2019-02-14T00:33:30.975Z,4.90
2019-02-14T00:34:37.394Z,4.86
2019-02-14T00:35:44.265Z,4.85
2019-02-14T00:36:50.649Z,4.83
2019-02-14T00:37:57.218Z,4.77
2019-02-14T00:39:03.694Z,4.75
2019-02-14T00:40:11.344Z,4.75
2019-02-14T00:41:17.910Z,4.73
2019-02-14T00:42:24.889Z,4.71
2019-02-14T00:43:32.027Z,4.71
2019-02-14T00:44:38.918Z,4.70
2019-02-14T00:45:45.803Z,4.67
2019-02-14T00:46:51.504Z,4.64
2019-02-14T00:47:57.147Z,4.67
2019-02-14T00:49:02.788Z,4.69
2019-02-14T00:50:09.118Z,4.71
2019-02-14T00:51:14.698Z,4.69
2019-02-14T00:52:22.152Z,4.69
2019-02-14T00:53:27.778Z,4.70
2019-02-14T00:54:33.458Z,4.72
2019-02-14T00:55:39.093Z,4.74
2019-02-14T00:56:45.543Z,4.75
2019-02-14T00:57:51.731Z,4.74
2019-02-14T00:58:58.553Z,4.75
2019-02-14T01:00:06.472Z,4.78
2019-02-14T01:01:13.173Z,4.75
2019-02-14T01:02:19.844Z,4.76
2019-02-14T01:03:26.200Z,4.77
2019-02-14T01:04:33.003Z,4.74
2019-02-14T01:05:40.288Z,4.73
2019-02-14T01:06:46.905Z,4.70
2019-02-14T01:07:53.671Z,4.69
2019-02-14T01:09:00.591Z,4.70
2019-02-14T01:10:12.308Z,4.69
2019-02-14T01:11:19.183Z,4.67
2019-02-14T01:12:25.701Z,4.72
2019-02-14T01:13:32.275Z,4.76
2019-02-14T01:14:38.287Z,4.77
2019-02-14T01:15:44.055Z,4.74
2019-02-14T01:16:49.888Z,4.73
2019-02-14T01:17:55.747Z,4.74
2019-02-14T01:19:01.408Z,4.75
2019-02-14T01:20:08.170Z,4.77
2019-02-14T01:21:14.817Z,4.78
2019-02-14T01:22:20.482Z,4.78
2019-02-14T01:23:26.587Z,4.79
2019-02-14T01:24:32.938Z,4.80
2019-02-14T01:25:38.601Z,4.83
2019-02-14T01:26:45.234Z,4.85
2019-02-14T01:27:51.335Z,4.90
2019-02-14T01:28:58.651Z,4.94
2019-02-14T01:30:08.737Z,4.98
2019-02-14T01:31:15.027Z,4.98
2019-02-14T01:32:23.520Z,4.99
2019-02-14T01:33:30.008Z,4.98
2019-02-14T01:34:36.629Z,4.96
2019-02-14T01:35:43.287Z,4.91
2019-02-14T01:36:50.665Z,4.89
2019-02-14T01:37:57.938Z,4.89
2019-02-14T01:39:05.963Z,4.88
2019-02-14T01:40:12.845Z,4.82
2019-02-14T01:41:19.184Z,4.80
2019-02-14T01:42:26.114Z,4.80
2019-02-14T01:43:32.531Z,4.77
2019-02-14T01:44:38.824Z,4.76
2019-02-14T01:45:44.505Z,4.75
2019-02-14T01:46:50.297Z,4.75
2019-02-14T01:47:56.064Z,4.71
2019-02-14T01:49:01.875Z,4.67
2019-02-14T01:50:11.015Z,4.65
2019-02-14T01:51:17.314Z,4.64
2019-02-14T01:52:24.190Z,4.58
2019-02-14T01:53:30.055Z,4.56
2019-02-14T01:54:35.691Z,4.52
2019-02-14T01:55:41.634Z,4.49
2019-02-14T01:56:49.175Z,4.47
2019-02-14T01:57:56.331Z,4.46
2019-02-14T01:59:04.123Z,4.41
2019-02-14T02:00:15.641Z,4.37
2019-02-14T02:01:22.534Z,4.29
2019-02-14T02:02:29.571Z,4.20
2019-02-14T02:03:36.025Z,4.14
2019-02-14T02:04:42.896Z,4.12
2019-02-14T02:05:51.023Z,4.10
2019-02-14T02:06:57.606Z,4.03
2019-02-14T02:08:05.221Z,3.98
2019-02-14T02:09:12.181Z,3.91
2019-02-14T02:10:19.335Z,3.86
2019-02-14T02:11:26.310Z,3.83
2019-02-14T02:12:33.234Z,3.85
2019-02-14T02:13:40.261Z,3.84
2019-02-14T02:14:46.392Z,3.84
2019-02-14T02:15:52.054Z,3.80
2019-02-14T02:16:57.962Z,3.75
2019-02-14T02:18:03.612Z,3.76
2019-02-14T02:19:09.575Z,3.75
2019-02-14T02:20:15.444Z,3.73
2019-02-14T02:21:21.574Z,3.73
2019-02-14T02:22:27.244Z,3.73
2019-02-14T02:23:32.911Z,3.74
2019-02-14T02:24:38.550Z,3.75
2019-02-14T02:25:44.155Z,3.76
2019-02-14T02:26:49.834Z,3.77
2019-02-14T02:27:56.874Z,3.78
2019-02-14T02:29:04.274Z,3.83
2019-02-14T02:30:15.266Z,3.86
2019-02-14T02:31:21.704Z,3.91
2019-02-14T02:32:29.480Z,3.95
2019-02-14T02:33:37.457Z,3.97
2019-02-14T02:34:44.243Z,4.02
2019-02-14T02:36:00.005Z,4.03
2019-02-14T02:36:59.284Z,4.05
2019-02-14T02:38:06.854Z,4.10
2019-02-14T02:39:14.672Z,4.14
2019-02-14T02:40:22.625Z,4.17
2019-02-14T02:41:29.131Z,4.19
2019-02-14T02:42:36.110Z,4.19
2019-02-14T02:43:42.634Z,4.22
2019-02-14T02:44:49.730Z,4.25
2019-02-14T02:45:55.403Z,4.27
2019-02-14T02:47:01.244Z,4.30
2019-02-14T02:48:06.928Z,4.31
2019-02-14T02:49:12.930Z,4.34
2019-02-14T02:50:18.825Z,4.34
2019-02-14T02:51:24.823Z,4.36
2019-02-14T02:52:31.163Z,4.39
2019-02-14T02:53:37.103Z,4.43
2019-02-14T02:54:42.776Z,4.47
2019-02-14T02:55:48.448Z,4.48
2019-02-14T02:56:54.136Z,4.54
2019-02-14T02:58:01.634Z,4.58
2019-02-14T02:59:07.593Z,4.61
2019-02-14T03:00:17.923Z,4.64
2019-02-14T03:01:24.673Z,4.67
2019-02-14T03:02:31.268Z,4.71
2019-02-14T03:03:37.666Z,4.73
2019-02-14T03:04:43.834Z,4.76
2019-02-14T03:05:50.831Z,4.76
2019-02-14T03:06:57.685Z,4.73
2019-02-14T03:08:04.788Z,4.74
2019-02-14T03:09:12.385Z,4.72
2019-02-14T03:10:19.154Z,4.72
2019-02-14T03:11:26.055Z,4.71
2019-02-14T03:12:33.086Z,4.72
2019-02-14T03:13:39.589Z,4.70
2019-02-14T03:14:46.432Z,4.69
2019-02-14T03:15:52.345Z,4.68
2019-02-14T03:16:58.165Z,4.67
2019-02-14T03:18:05.278Z,4.67
2019-02-14T03:19:10.918Z,4.69
2019-02-14T03:20:16.573Z,4.72
2019-02-14T03:21:22.244Z,4.75
2019-02-14T03:22:28.433Z,4.76
2019-02-14T03:23:34.565Z,4.79
2019-02-14T03:24:40.294Z,4.81
2019-02-14T03:25:45.973Z,4.83
2019-02-14T03:26:52.483Z,4.87
2019-02-14T03:27:59.524Z,4.91
2019-02-14T03:29:06.109Z,4.92
2019-02-14T03:30:16.234Z,4.94
2019-02-14T03:31:23.048Z,4.97
2019-02-14T03:32:30.081Z,4.98
2019-02-14T03:33:36.935Z,4.98
2019-02-14T03:34:43.474Z,4.99
2019-02-14T03:35:50.171Z,4.99
2019-02-14T03:36:57.812Z,5.01
2019-02-14T03:38:04.202Z,5.01
2019-02-14T03:39:11.052Z,5.03
2019-02-14T03:40:18.143Z,5.03
2019-02-14T03:41:25.849Z,5.03
2019-02-14T03:42:33.212Z,5.03
2019-02-14T03:43:40.563Z,5.04
2019-02-14T03:44:47.436Z,5.06
2019-02-14T03:45:53.187Z,5.07
2019-02-14T03:46:58.896Z,5.06
2019-02-14T03:48:04.576Z,5.08
2019-02-14T03:49:10.545Z,5.10
2019-02-14T03:50:16.216Z,5.12
2019-02-14T03:51:22.436Z,5.15
2019-02-14T03:52:28.296Z,5.17
2019-02-14T03:53:34.066Z,5.20
2019-02-14T03:54:40.166Z,5.23
2019-02-14T03:55:46.126Z,5.26
2019-02-14T03:56:51.798Z,5.26
2019-02-14T03:57:59.194Z,5.30
2019-02-14T03:59:06.516Z,5.33
2019-02-14T04:00:18.921Z,5.36
2019-02-14T04:01:25.736Z,5.40
2019-02-14T04:02:33.103Z,5.42
2019-02-14T04:03:41.417Z,5.44
2019-02-14T04:04:48.604Z,5.46
2019-02-14T04:05:55.301Z,5.47
2019-02-14T04:07:02.245Z,5.51
2019-02-14T04:08:09.315Z,5.53
2019-02-14T04:09:17.416Z,5.55
2019-02-14T04:10:23.177Z,5.55
2019-02-14T04:11:30.568Z,5.54
2019-02-14T04:12:37.407Z,5.55
2019-02-14T04:13:44.135Z,5.57
2019-02-14T04:14:50.888Z,5.59
2019-02-14T04:15:56.537Z,5.62
2019-02-14T04:17:02.169Z,5.64
2019-02-14T04:18:08.177Z,5.67
2019-02-14T04:19:14.235Z,5.69
2019-02-14T04:20:20.277Z,5.70
2019-02-14T04:21:26.226Z,5.71
2019-02-14T04:22:32.078Z,5.72
2019-02-14T04:23:37.967Z,5.75
2019-02-14T04:24:44.408Z,5.76
2019-02-14T04:25:50.418Z,5.78
2019-02-14T04:26:56.215Z,5.81
2019-02-14T04:28:03.710Z,5.81
2019-02-14T04:29:10.168Z,5.84
2019-02-14T04:30:18.207Z,5.84
2019-02-14T04:31:24.719Z,5.86
2019-02-14T04:32:31.616Z,5.88
2019-02-14T04:33:38.956Z,5.90
2019-02-14T04:34:46.401Z,5.92
2019-02-14T04:35:55.979Z,5.94
2019-02-14T04:37:03.494Z,5.96
2019-02-14T04:38:10.439Z,5.97
2019-02-14T04:39:17.880Z,5.99
2019-02-14T04:40:33.234Z,5.99
2019-02-14T04:41:33.089Z,5.98
2019-02-14T04:42:40.785Z,6.00
2019-02-14T04:43:47.873Z,6.02
2019-02-14T04:44:54.934Z,6.02
2019-02-14T04:46:00.619Z,6.03
2019-02-14T04:47:06.307Z,6.02
2019-02-14T04:48:12.259Z,6.02
2019-02-14T04:49:18.119Z,6.03
2019-02-14T04:50:25.945Z,6.04
2019-02-14T04:51:32.553Z,6.04
2019-02-14T04:52:39.130Z,6.04
2019-02-14T04:53:45.710Z,6.04
2019-02-14T04:54:51.779Z,6.08
2019-02-14T04:55:58.027Z,6.08
2019-02-14T04:57:04.887Z,6.10
2019-02-14T04:58:11.309Z,6.11
2019-02-14T04:59:17.367Z,6.12
2019-02-14T05:00:23.558Z,6.13
2019-02-14T05:01:29.566Z,6.13
2019-02-14T05:02:38.117Z,6.16
2019-02-14T05:03:45.646Z,6.16
2019-02-14T05:04:52.419Z,6.15
2019-02-14T05:05:58.772Z,6.15
2019-02-14T05:07:05.411Z,6.16
2019-02-14T05:08:12.273Z,6.17
2019-02-14T05:09:18.764Z,6.20
2019-02-14T05:10:25.044Z,6.21
2019-02-14T05:11:31.501Z,6.22
2019-02-14T05:12:38.934Z,6.23
2019-02-14T05:13:46.384Z,6.23
2019-02-14T05:14:52.924Z,6.26
2019-02-14T05:15:58.835Z,6.29
2019-02-14T05:17:04.543Z,6.29
2019-02-14T05:18:10.414Z,6.28
2019-02-14T05:19:16.654Z,6.26
2019-02-14T05:20:22.304Z,6.23
2019-02-14T05:21:28.621Z,6.23
2019-02-14T05:22:34.874Z,6.22
2019-02-14T05:23:40.861Z,6.22
2019-02-14T05:24:47.159Z,6.22
2019-02-14T05:25:53.324Z,6.22
2019-02-14T05:26:59.652Z,6.23
2019-02-14T05:28:06.001Z,6.25
2019-02-14T05:29:12.684Z,6.27
2019-02-14T05:30:20.641Z,6.26
2019-02-14T05:31:27.021Z,6.28
2019-02-14T05:32:33.724Z,6.28
2019-02-14T05:33:40.844Z,6.28
2019-02-14T05:34:47.654Z,6.27
2019-02-14T05:35:54.092Z,6.28
2019-02-14T05:37:01.054Z,6.29
2019-02-14T05:38:08.655Z,6.31
2019-02-14T05:39:14.964Z,6.30
2019-02-14T05:40:21.483Z,6.31
2019-02-14T05:41:27.863Z,6.31
2019-02-14T05:42:35.806Z,6.33
2019-02-14T05:43:43.317Z,6.34
2019-02-14T05:44:50.905Z,6.35
2019-02-14T05:45:58.258Z,6.35
2019-02-14T05:47:04.095Z,6.38
2019-02-14T05:48:10.355Z,6.39
2019-02-14T05:49:16.737Z,6.37
2019-02-14T05:50:22.907Z,6.39
2019-02-14T05:51:28.583Z,6.38
2019-02-14T05:52:34.464Z,6.41
2019-02-14T05:53:41.075Z,6.41
2019-02-14T05:54:46.835Z,6.42
2019-02-14T05:55:52.846Z,6.42
2019-02-14T05:56:59.275Z,6.43
2019-02-14T05:58:05.166Z,6.44
2019-02-14T05:59:12.285Z,6.43
2019-02-14T06:00:20.146Z,6.45
2019-02-14T06:01:37.056Z,6.47
2019-02-14T06:02:43.933Z,6.47
2019-02-14T06:04:34.615Z,6.47
2019-02-14T06:05:51.435Z,6.48
2019-02-14T06:07:06.492Z,6.49
2019-02-14T06:08:15.963Z,6.48
2019-02-14T06:09:23.112Z,6.49
2019-02-14T06:10:34.344Z,6.50
2019-02-14T06:11:47.265Z,6.52
2019-02-14T06:12:53.632Z,6.52
2019-02-14T06:14:01.705Z,6.52
2019-02-14T06:15:12.193Z,6.52
2019-02-14T06:16:18.265Z,6.55
2019-02-14T06:17:25.955Z,6.55
2019-02-14T06:18:33.694Z,6.56
2019-02-14T06:19:40.125Z,6.57
2019-02-14T06:20:46.252Z,6.59
2019-02-14T06:21:53.082Z,6.61
2019-02-14T06:23:00.985Z,6.61
2019-02-14T06:24:07.595Z,6.62
2019-02-14T06:25:15.033Z,6.62
2019-02-14T06:26:23.379Z,6.62
2019-02-14T06:27:29.642Z,6.63
2019-02-14T06:28:37.320Z,6.64
2019-02-14T06:29:43.522Z,6.67
2019-02-14T06:31:08.463Z,6.68
2019-02-14T06:32:15.685Z,6.70
2019-02-14T06:33:57.795Z,6.71
2019-02-14T06:35:12.462Z,6.72
2019-02-14T06:36:19.865Z,6.71
2019-02-14T06:37:30.792Z,6.71
2019-02-14T06:38:48.182Z,6.71
2019-02-14T06:40:05.164Z,6.73
2019-02-14T06:41:34.481Z,6.74
2019-02-14T06:42:54.930Z,6.76
2019-02-14T06:44:03.100Z,6.76
2019-02-14T06:45:46.143Z,6.77
2019-02-14T06:47:05.414Z,6.80
2019-02-14T06:48:32.255Z,6.81
2019-02-14T06:49:54.872Z,6.81
2019-02-14T06:51:18.297Z,6.81
2019-02-14T06:52:44.656Z,6.83
2019-02-14T06:54:12.355Z,6.83
2019-02-14T06:55:56.505Z,6.84
2019-02-14T06:57:23.175Z,6.85
2019-02-14T06:58:44.344Z,6.87
2019-02-14T06:59:57.603Z,6.87
2019-02-14T07:02:56.703Z,6.89
2019-02-14T07:04:05.515Z,6.91
2019-02-14T07:05:16.695Z,6.92
2019-02-14T07:06:35.741Z,6.93
2019-02-14T07:07:44.227Z,6.95
2019-02-14T07:08:53.283Z,6.94
2019-02-14T07:10:03.595Z,6.96
2019-02-14T07:11:15.594Z,6.97
2019-02-14T07:12:32.902Z,6.98
2019-02-14T07:13:48.282Z,7.00
2019-02-14T07:14:58.202Z,7.02
2019-02-14T07:16:20.382Z,7.01
2019-02-14T07:17:46.997Z,7.02
2019-02-14T07:18:57.102Z,7.04
2019-02-14T07:20:04.555Z,7.05
2019-02-14T07:21:18.134Z,7.05
2019-02-14T07:22:48.165Z,7.09
2019-02-14T07:24:20.983Z,7.06
2019-02-14T07:25:47.204Z,7.11
2019-02-14T07:29:25.618Z,7.15
2019-02-14T07:31:28.854Z,7.16
2019-02-14T07:32:54.038Z,7.18
2019-02-14T07:34:27.725Z,7.20
2019-02-14T07:35:40.103Z,7.20
2019-02-14T07:37:14.755Z,7.24
2019-02-14T07:38:30.162Z,7.24
2019-02-14T07:39:43.770Z,7.26
2019-02-14T07:41:12.763Z,7.25
2019-02-14T07:42:41.843Z,7.26
2019-02-14T07:44:19.935Z,7.27
2019-02-14T07:46:24.617Z,7.26
2019-02-14T07:47:40.284Z,7.27
2019-02-14T07:48:57.915Z,7.30
2019-02-14T07:50:18.156Z,7.31
2019-02-14T07:51:58.762Z,7.34
2019-02-14T07:53:09.209Z,7.37
2019-02-14T07:54:57.492Z,7.40
2019-02-14T07:58:30.435Z,7.46
2019-02-14T07:59:42.475Z,7.49
2019-02-14T08:00:55.155Z,7.48
2019-02-14T08:02:02.223Z,7.49
2019-02-14T08:03:09.530Z,7.53
2019-02-14T08:04:16.282Z,7.55
2019-02-14T08:05:24.595Z,7.58
2019-02-14T08:06:31.542Z,7.59
2019-02-14T08:07:38.618Z,7.61
2019-02-14T08:08:45.241Z,7.63
2019-02-14T08:09:52.443Z,7.65
2019-02-14T08:10:59.482Z,7.67
2019-02-14T08:12:06.443Z,7.68
2019-02-14T08:13:13.554Z,7.70
2019-02-14T08:14:20.355Z,7.72
2019-02-14T08:15:26.622Z,7.70
2019-02-14T08:16:32.554Z,7.70
2019-02-14T08:17:38.794Z,7.70
2019-02-14T08:18:44.502Z,7.70
2019-02-14T08:19:50.382Z,7.71
2019-02-14T08:20:56.114Z,7.73
2019-02-14T08:22:02.094Z,7.73
2019-02-14T08:23:48.615Z,7.73
2019-02-14T08:24:54.495Z,7.73
2019-02-14T08:26:01.084Z,7.78
2019-02-14T08:27:06.822Z,7.78
2019-02-14T08:28:12.504Z,7.79
2019-02-14T08:29:19.042Z,7.80
2019-02-14T08:30:25.355Z,7.81
2019-02-14T08:31:31.495Z,7.85
2019-02-14T08:32:37.935Z,7.85
2019-02-14T08:33:45.162Z,7.85
2019-02-14T08:34:51.675Z,7.85
2019-02-14T08:35:57.334Z,7.85
2019-02-14T08:37:03.274Z,7.86
2019-02-14T08:38:10.543Z,7.91
2019-02-14T08:39:17.795Z,7.92
2019-02-14T08:40:34.541Z,7.93
2019-02-14T08:41:40.422Z,7.93
2019-02-14T08:42:46.955Z,7.92
2019-02-14T08:43:53.675Z,7.94
2019-02-14T08:44:59.992Z,7.93
2019-02-14T08:46:06.764Z,7.95
2019-02-14T08:47:13.850Z,7.97
2019-02-14T08:48:19.555Z,7.96
2019-02-14T08:49:25.235Z,7.98
2019-02-14T08:50:31.196Z,7.97
2019-02-14T08:51:37.263Z,7.97
2019-02-14T08:52:43.236Z,7.98
2019-02-14T08:53:48.941Z,7.96
2019-02-14T08:54:54.691Z,7.95
2019-02-14T08:56:00.336Z,7.97
2019-02-14T08:57:06.249Z,7.99
2019-02-14T08:58:12.374Z,7.98
2019-02-14T08:59:18.121Z,8.04
2019-02-14T09:00:25.164Z,8.02
2019-02-14T09:01:32.982Z,8.03
2019-02-14T09:02:38.976Z,8.02
2019-02-14T09:03:46.675Z,8.00
2019-02-14T09:04:53.281Z,7.99
2019-02-14T09:06:00.036Z,7.99
2019-02-14T09:07:07.156Z,7.99
2019-02-14T09:08:13.016Z,7.95
2019-02-14T09:09:20.223Z,7.94
2019-02-14T09:10:26.306Z,7.93
2019-02-14T09:11:32.224Z,7.91
2019-02-14T09:12:39.344Z,7.93
2019-02-14T09:13:45.734Z,7.93
2019-02-14T09:14:51.781Z,7.95
2019-02-14T09:15:58.076Z,7.97
2019-02-14T09:17:04.774Z,7.98
2019-02-14T09:18:10.656Z,8.01
2019-02-14T09:19:16.562Z,8.03
2019-02-14T09:20:23.121Z,8.07
2019-02-14T09:21:28.799Z,8.10
2019-02-14T09:22:35.115Z,8.11
2019-02-14T09:23:41.037Z,8.12
2019-02-14T09:24:47.375Z,8.11
2019-02-14T09:25:53.022Z,8.10
2019-02-14T09:26:58.944Z,8.09
2019-02-14T09:28:04.694Z,8.10
2019-02-14T09:29:13.692Z,8.11
2019-02-14T09:30:19.215Z,8.12
2019-02-14T09:31:26.731Z,8.13
2019-02-14T09:32:32.835Z,8.15
2019-02-14T09:33:38.480Z,8.17
2019-02-14T09:34:44.754Z,8.18
2019-02-14T09:35:51.737Z,8.18
2019-02-14T09:36:57.716Z,8.16
2019-02-14T09:38:03.908Z,8.16
2019-02-14T09:39:10.196Z,8.13
2019-02-14T09:40:19.764Z,8.16
2019-02-14T09:41:26.795Z,8.18
2019-02-14T09:42:32.590Z,8.21
2019-02-14T09:43:39.637Z,8.23
2019-02-14T09:44:46.241Z,8.27
2019-02-14T09:45:52.182Z,8.29
2019-02-14T09:46:57.881Z,8.28
2019-02-14T09:48:03.601Z,8.29
2019-02-14T09:49:09.277Z,8.28
2019-02-14T09:50:16.014Z,8.25
2019-02-14T09:51:21.675Z,8.24
2019-02-14T09:52:27.387Z,8.22
2019-02-14T09:53:34.048Z,8.25
2019-02-14T09:54:41.074Z,8.24
2019-02-14T09:55:46.821Z,8.23
2019-02-14T09:56:52.921Z,8.27
2019-02-14T09:57:58.609Z,8.28
2019-02-14T09:59:04.971Z,8.28
2019-02-14T10:00:20.894Z,8.28
2019-02-14T10:01:26.586Z,8.29
2019-02-14T10:02:33.407Z,8.30
2019-02-14T10:03:39.647Z,8.29
2019-02-14T10:04:46.951Z,8.30
2019-02-14T10:05:53.107Z,8.35
2019-02-14T10:06:58.977Z,8.37
2019-02-14T10:08:12.441Z,8.39
2019-02-14T10:09:14.087Z,8.38
2019-02-14T10:10:22.145Z,8.38
2019-02-14T10:11:27.826Z,8.39
2019-02-14T10:12:34.441Z,8.39
2019-02-14T10:13:40.123Z,8.39
2019-02-14T10:14:46.655Z,8.40
2019-02-14T10:15:52.374Z,8.39
2019-02-14T10:16:58.774Z,8.42
2019-02-14T10:18:04.815Z,8.44
2019-02-14T10:19:10.541Z,8.46
2019-02-14T10:20:19.705Z,8.44
2019-02-14T10:21:25.754Z,8.42
2019-02-14T10:22:31.557Z,8.41
2019-02-14T10:23:37.254Z,8.42
2019-02-14T10:24:45.068Z,8.41
2019-02-14T10:25:51.155Z,8.43
2019-02-14T10:26:57.014Z,8.46
2019-02-14T10:28:03.007Z,8.46
2019-02-14T10:29:09.714Z,8.46
2019-02-14T10:30:23.381Z,8.46
2019-02-14T10:31:29.254Z,8.46
2019-02-14T10:32:35.915Z,8.46
2019-02-14T10:33:42.587Z,8.47
2019-02-14T10:34:48.810Z,8.51
2019-02-14T10:35:55.077Z,8.58
2019-02-14T10:37:01.694Z,8.59
2019-02-14T10:38:07.434Z,8.58
2019-02-14T10:39:14.261Z,8.61
2019-02-14T10:40:20.165Z,8.60
2019-02-14T10:41:26.755Z,8.63
2019-02-14T10:42:33.044Z,8.62
2019-02-14T10:43:38.803Z,8.62
2019-02-14T10:44:45.154Z,8.59
2019-02-14T10:45:51.661Z,8.58
2019-02-14T10:46:57.636Z,8.57
2019-02-14T10:48:03.355Z,8.54
2019-02-14T10:49:09.083Z,8.55
2019-02-14T10:50:14.803Z,8.58
2019-02-14T10:51:20.514Z,8.62
2019-02-14T10:52:26.194Z,8.64
2019-02-14T10:53:31.875Z,8.67
2019-02-14T10:54:37.955Z,8.69
2019-02-14T10:55:43.641Z,8.71
2019-02-14T10:56:49.922Z,8.74
2019-02-14T10:57:56.039Z,8.74
2019-02-14T10:59:01.695Z,8.71
2019-02-14T11:00:16.085Z,8.69
2019-02-14T11:01:21.377Z,8.68
2019-02-14T11:02:27.062Z,8.65
2019-02-14T11:03:32.763Z,8.65
2019-02-14T11:04:38.515Z,8.66
2019-02-14T11:05:44.945Z,8.65
2019-02-14T11:06:51.962Z,8.64
2019-02-14T11:07:57.975Z,8.63
2019-02-14T11:09:05.194Z,8.63
2019-02-14T11:10:15.404Z,8.60
2019-02-14T11:11:21.334Z,8.58
2019-02-14T11:12:28.495Z,8.55
2019-02-14T11:13:35.203Z,8.54
2019-02-14T11:14:41.104Z,8.54
2019-02-14T11:15:48.054Z,8.53
2019-02-14T11:16:53.894Z,8.51
2019-02-14T11:17:59.595Z,8.52
2019-02-14T11:19:05.322Z,8.51
2019-02-14T11:20:13.984Z,8.50
2019-02-14T11:21:20.175Z,8.48
2019-02-14T11:22:30.095Z,8.48
2019-02-14T11:23:35.782Z,8.47
2019-02-14T11:24:42.353Z,8.47
2019-02-14T11:25:48.075Z,8.44
2019-02-14T11:26:53.993Z,8.43
2019-02-14T11:27:59.675Z,8.42
2019-02-14T11:29:05.382Z,8.42
2019-02-14T11:30:14.381Z,8.44
2019-02-14T11:31:20.116Z,8.43
2019-02-14T11:32:25.837Z,8.43
2019-02-14T11:33:31.537Z,8.42
2019-02-14T11:34:37.246Z,8.43
2019-02-14T11:35:42.956Z,8.46
2019-02-14T11:36:48.624Z,8.47
2019-02-14T11:37:54.294Z,8.48
2019-02-14T11:38:59.998Z,8.51
2019-02-14T11:40:11.456Z,8.50
2019-02-14T11:41:17.167Z,8.51
2019-02-14T11:42:22.873Z,8.52
2019-02-14T11:43:28.564Z,8.51
2019-02-14T11:44:39.716Z,8.54
2019-02-14T11:45:41.556Z,8.53
2019-02-14T11:46:51.472Z,8.50
2019-02-14T11:47:54.582Z,8.47
2019-02-14T11:49:00.255Z,8.48
2019-02-14T11:50:10.034Z,8.47
2019-02-14T11:51:15.677Z,8.44
2019-02-14T11:52:21.394Z,8.45
2019-02-14T11:53:29.293Z,8.45
2019-02-14T11:54:34.435Z,8.51
2019-02-14T11:55:40.574Z,8.57
2019-02-14T11:56:46.602Z,8.60
2019-02-14T11:57:52.511Z,8.62
2019-02-14T11:58:58.503Z,8.62
2019-02-14T12:00:07.665Z,8.63
2019-02-14T12:01:13.982Z,8.71
2019-02-14T12:02:20.581Z,8.79
2019-02-14T12:03:26.681Z,8.81
2019-02-14T12:04:34.394Z,8.81
2019-02-14T12:05:41.443Z,8.90
2019-02-14T12:06:47.889Z,8.91
2019-02-14T12:07:55.814Z,8.93
2019-02-14T12:09:02.282Z,8.96
2019-02-14T12:10:13.426Z,9.01
2019-02-14T12:11:19.114Z,9.05
2019-02-14T12:12:25.846Z,9.06
2019-02-14T12:13:32.921Z,9.06
2019-02-14T12:14:39.134Z,9.10
2019-02-14T12:15:45.175Z,9.16
2019-02-14T12:16:52.363Z,9.17
2019-02-14T12:17:59.001Z,9.14
2019-02-14T12:19:04.922Z,9.14
2019-02-14T12:20:17.956Z,9.17
2019-02-14T12:21:23.695Z,9.18
2019-02-14T12:22:29.394Z,9.19
2019-02-14T12:23:35.063Z,9.22
2019-02-14T12:24:41.014Z,9.20
2019-02-14T12:25:46.695Z,9.15
2019-02-14T12:26:52.795Z,9.13
2019-02-14T12:27:58.675Z,9.07
2019-02-14T12:29:04.455Z,9.06
2019-02-14T12:30:14.094Z,9.02
2019-02-14T12:31:20.835Z,9.02
2019-02-14T12:32:26.562Z,9.00
2019-02-14T12:33:33.559Z,9.00
2019-02-14T12:34:39.884Z,8.99
2019-02-14T12:35:46.729Z,8.99
2019-02-14T12:36:53.156Z,8.99
2019-02-14T12:37:58.835Z,8.97
2019-02-14T12:39:09.086Z,8.97
2019-02-14T12:40:14.863Z,8.99
2019-02-14T12:41:20.494Z,8.99
2019-02-14T12:42:26.636Z,9.00
2019-02-14T12:43:33.136Z,8.99
2019-02-14T12:44:39.074Z,9.01
2019-02-14T12:45:45.663Z,9.00
2019-02-14T12:46:51.993Z,8.98
2019-02-14T12:47:57.757Z,8.98
2019-02-14T12:49:03.402Z,8.98
2019-02-14T12:50:10.639Z,8.99
2019-02-14T12:51:16.271Z,8.96
2019-02-14T12:52:21.854Z,8.95
2019-02-14T12:53:27.483Z,8.95
2019-02-14T12:54:33.155Z,8.95
2019-02-14T12:55:38.825Z,8.96
2019-02-14T12:56:44.480Z,8.98
2019-02-14T12:57:50.057Z,8.96
2019-02-14T12:58:55.714Z,8.94
2019-02-14T13:00:01.788Z,8.95
2019-02-14T13:01:09.717Z,8.95
2019-02-14T13:02:16.317Z,8.95
2019-02-14T13:03:21.932Z,8.95
2019-02-14T13:04:28.708Z,8.97
2019-02-14T13:05:35.277Z,8.98
2019-02-14T13:06:41.343Z,9.00
2019-02-14T13:07:47.848Z,9.01
2019-02-14T13:08:53.545Z,9.01
2019-02-14T13:09:59.093Z,8.97
2019-02-14T13:11:04.727Z,8.95
2019-02-14T13:12:10.930Z,8.92
2019-02-14T13:13:16.734Z,8.92
2019-02-14T13:14:22.648Z,8.88
2019-02-14T13:15:30.083Z,8.86
2019-02-14T13:16:35.841Z,8.85
2019-02-14T13:17:42.054Z,8.83
2019-02-14T13:18:47.652Z,8.84
2019-02-14T13:19:53.290Z,8.84
2019-02-14T13:20:59.030Z,8.85
2019-02-14T13:22:04.623Z,8.88
2019-02-14T13:23:10.236Z,8.88
2019-02-14T13:24:15.887Z,8.92
2019-02-14T13:25:21.571Z,8.94
2019-02-14T13:26:27.190Z,8.95
2019-02-14T13:27:32.994Z,8.96
2019-02-14T13:28:38.626Z,8.98
2019-02-14T13:29:44.660Z,8.98
2019-02-14T13:30:50.745Z,8.97
2019-02-14T13:31:56.550Z,8.94
2019-02-14T13:33:03.209Z,8.94
2019-02-14T13:34:10.411Z,8.94
2019-02-14T13:35:16.646Z,8.92
2019-02-14T13:36:22.889Z,8.87
2019-02-14T13:37:28.503Z,8.86
2019-02-14T13:38:34.369Z,8.83
2019-02-14T13:39:41.779Z,8.82
2019-02-14T13:40:47.757Z,8.81
2019-02-14T13:41:53.850Z,8.80
2019-02-14T13:43:00.604Z,8.81
2019-02-14T13:44:06.370Z,8.81
2019-02-14T13:45:19.566Z,8.82
2019-02-14T13:46:25.227Z,8.83
2019-02-14T13:47:31.393Z,8.83
2019-02-14T13:48:38.570Z,8.84
2019-02-14T13:49:44.177Z,8.85
2019-02-14T13:50:49.844Z,8.83
2019-02-14T13:51:55.481Z,8.85
2019-02-14T13:53:01.152Z,8.85
2019-02-14T13:54:07.058Z,8.87
2019-02-14T13:55:12.736Z,8.90
2019-02-14T13:56:18.417Z,8.94
2019-02-14T13:57:24.461Z,8.96
2019-02-14T13:58:30.113Z,8.96
2019-02-14T13:59:36.747Z,8.96
2019-02-14T14:00:43.260Z,8.94
2019-02-14T14:01:48.893Z,8.95
2019-02-14T14:02:55.150Z,8.97
2019-02-14T14:04:02.084Z,9.00
2019-02-14T14:05:09.118Z,9.00
2019-02-14T14:06:16.513Z,9.02
2019-02-14T14:07:23.208Z,9.03
2019-02-14T14:08:29.242Z,9.04
2019-02-14T14:09:38.698Z,9.04
2019-02-14T14:10:43.395Z,9.07
2019-02-14T14:11:49.503Z,9.10
2019-02-14T14:12:55.727Z,9.13
2019-02-14T14:14:01.456Z,9.14
2019-02-14T14:15:11.451Z,9.15
2019-02-14T14:16:17.614Z,9.18
2019-02-14T14:17:23.796Z,9.19
2019-02-14T14:18:29.756Z,9.18
2019-02-14T14:19:36.626Z,9.15
2019-02-14T14:20:42.267Z,9.11
2019-02-14T14:21:48.204Z,9.08
2019-02-14T14:22:53.866Z,9.09
2019-02-14T14:23:59.561Z,9.09
2019-02-14T14:25:07.589Z,9.09
2019-02-14T14:26:13.178Z,9.06
2019-02-14T14:27:19.342Z,9.03
2019-02-14T14:28:25.106Z,9.02
2019-02-14T14:29:30.741Z,9.03
2019-02-14T14:30:36.427Z,9.03
2019-02-14T14:31:42.505Z,9.03
2019-02-14T14:32:48.907Z,9.02
2019-02-14T14:33:55.659Z,9.02
2019-02-14T14:35:01.541Z,9.03
2019-02-14T14:36:07.335Z,9.06
2019-02-14T14:37:13.101Z,9.10
2019-02-14T14:38:19.528Z,9.13
2019-02-14T14:39:25.484Z,9.09
2019-02-14T14:40:31.373Z,9.05
2019-02-14T14:41:37.627Z,9.04
2019-02-14T14:42:52.064Z,9.04
2019-02-14T14:44:02.237Z,9.01
2019-02-14T14:45:10.787Z,9.00
2019-02-14T14:46:18.467Z,8.96
2019-02-14T14:47:25.147Z,8.94
2019-02-14T14:48:33.927Z,8.89
2019-02-14T14:49:39.578Z,8.89
2019-02-14T14:50:45.214Z,8.86
2019-02-14T14:51:50.984Z,8.84
2019-02-14T14:52:56.627Z,8.85
2019-02-14T14:54:02.341Z,8.84
2019-02-14T14:55:07.974Z,8.84
2019-02-14T14:56:13.661Z,8.83
2019-02-14T14:57:20.826Z,8.82
2019-02-14T14:58:26.474Z,8.80
2019-02-14T14:59:32.682Z,8.77
2019-02-14T15:00:38.787Z,8.78
2019-02-14T15:01:44.778Z,8.77
2019-02-14T15:02:52.310Z,8.75
2019-02-14T15:03:58.309Z,8.72
2019-02-14T15:05:04.712Z,8.72
2019-02-14T15:06:11.179Z,8.69
2019-02-14T15:07:17.397Z,8.69
2019-02-14T15:08:24.607Z,8.67
2019-02-14T15:09:32.187Z,8.67
2019-02-14T15:10:38.192Z,8.65